Time;durP1;ratioP1;P1;durP2;ratioP2;P2;SDS_P1;SDS_P2;PMS_P1;PMS_P2;Temp;Humidity;BMP_temperature;BMP_pressure;BME280_temperature;BME280_humidity;BME280_pressure;Samples;Min_cycle;Max_cycle;Signal;HPM_P1;HPM_P2
2023/03/15 00:00:54;;;;;;;4.27;2.23;;;;;;;0.05;100.00;99873.59;4891372;29;20064;-80
2023/03/15 00:03:23;;;;;;;9.53;2.77;;;;;;;0.05;100.00;99871.00;4899376;29;20094;-79
2023/03/15 00:05:51;;;;;;;8.37;1.83;;;;;;;0.01;100.00;99877.03;4891171;29;20040;-79
2023/03/15 00:08:18;;;;;;;6.40;2.30;;;;;;;0.10;100.00;99884.03;4907788;29;20107;-80
2023/03/15 00:10:46;;;;;;;5.40;2.00;;;;;;;0.03;100.00;99888.31;4875902;29;20051;-80
2023/03/15 00:13:14;;;;;;;7.60;1.80;;;;;;;0.17;100.00;99888.41;4906886;29;20051;-79
2023/03/15 00:15:46;;;;;;;6.07;2.20;;;;;;;0.08;100.00;99883.13;4871835;29;20052;-79
2023/03/15 00:18:14;;;;;;;8.87;1.77;;;;;;;0.09;100.00;99897.88;4906658;29;20044;-81
2023/03/15 00:20:41;;;;;;;7.70;2.20;;;;;;;0.02;100.00;99898.69;4892518;29;20040;-79
2023/03/15 00:23:12;;;;;;;4.77;1.60;;;;;;;0.05;100.00;99902.16;4905231;29;20063;-80
2023/03/15 00:25:38;;;;;;;5.83;1.73;;;;;;;0.12;100.00;99909.16;4887020;29;20052;-80
2023/03/15 00:28:05;;;;;;;5.97;1.70;;;;;;;0.10;100.00;99913.47;4882526;29;20082;-80
2023/03/15 00:42:53;;;;;;;9.40;2.00;;;;;;;0.17;100.00;99941.25;4915588;29;20035;-80
2023/03/15 00:45:20;;;;;;;4.83;2.30;;;;;;;0.17;100.00;99955.94;4924917;29;20035;-80
2023/03/15 00:47:51;;;;;;;5.30;1.60;;;;;;;0.20;100.00;99954.25;4869060;29;20055;-80
2023/03/15 00:50:19;;;;;;;6.00;2.20;;;;;;;0.27;100.00;99961.28;4876974;29;20048;-80
2023/03/15 00:52:46;;;;;;;6.73;2.03;;;;;;;0.19;100.00;99959.44;4913169;29;20379;-81
2023/03/15 00:55:14;;;;;;;6.07;2.40;;;;;;;0.10;100.00;99960.22;4883678;29;20051;-80
2023/03/15 00:57:42;;;;;;;4.97;1.67;;;;;;;0.04;100.00;99965.34;4884207;29;20070;-80
2023/03/15 01:00:13;;;;;;;2.67;1.43;;;;;;;0.05;100.00;99967.09;4884551;29;20041;-79
2023/03/15 01:02:40;;;;;;;5.17;2.00;;;;;;;0.07;100.00;99967.97;4883833;29;20040;-81
2023/03/15 01:05:08;;;;;;;5.60;1.97;;;;;;;-0.05;100.00;99967.84;4883336;29;20044;-80
2023/03/15 01:07:35;;;;;;;7.07;2.00;;;;;;;0.01;100.00;99985.22;4884980;29;20044;-79
2023/03/15 01:10:04;;;;;;;6.73;1.90;;;;;;;-0.03;100.00;99990.38;4869839;29;20055;-81
2023/03/15 01:12:31;;;;;;;8.93;1.60;;;;;;;-0.02;100.00;99991.25;4885018;29;20486;-81
2023/03/15 01:14:59;;;;;;;5.37;2.00;;;;;;;-0.06;100.00;100002.47;4883221;29;20399;-79
2023/03/15 01:17:26;;;;;;;5.50;2.00;;;;;;;0.02;100.00;99999.97;4885793;29;20422;-81
2023/03/15 01:19:53;;;;;;;12.90;2.40;;;;;;;-0.06;100.00;100005.06;4868077;29;20049;-80
2023/03/15 01:22:19;;;;;;;5.80;1.70;;;;;;;-0.24;100.00;99999.66;4900723;29;20037;-80
2023/03/15 01:24:46;;;;;;;6.07;2.17;;;;;;;-0.20;100.00;99999.69;4885014;29;20081;-80
2023/03/15 01:27:13;;;;;;;3.27;1.90;;;;;;;-0.23;100.00;99999.66;4865646;29;20044;-81
2023/03/15 01:29:40;;;;;;;4.63;1.90;;;;;;;-0.33;100.00;100006.47;4903012;29;20044;-79
2023/03/15 01:32:06;;;;;;;3.20;1.53;;;;;;;-0.20;100.00;100012.66;4879131;29;20056;-81
2023/03/15 01:34:33;;;;;;;6.43;2.20;;;;;;;-0.26;100.00;100014.31;4874412;29;20048;-80
2023/03/15 01:37:01;;;;;;;4.57;1.90;;;;;;;-0.29;100.00;100017.75;4889142;29;20496;-80
2023/03/15 01:39:30;;;;;;;9.90;1.83;;;;;;;-0.17;100.00;100022.22;4889459;29;20064;-81
2023/03/15 01:41:56;;;;;;;6.43;2.17;;;;;;;-0.29;100.00;100025.53;4873277;29;20052;-80
2023/03/15 01:44:23;;;;;;;5.30;1.60;;;;;;;-0.30;100.00;100032.44;4899964;29;20112;-81
2023/03/15 01:46:50;;;;;;;9.70;1.80;;;;;;;-0.24;100.00;100038.59;4890019;29;20414;-80
2023/03/15 01:49:23;;;;;;;2.50;1.40;;;;;;;-0.28;100.00;100037.66;4891160;29;20040;-81
2023/03/15 01:51:55;;;;;;;6.57;1.70;;;;;;;-0.30;100.00;100044.56;4892247;29;20044;-81
2023/03/15 01:54:32;;;;;;;7.27;2.23;;;;;;;-0.28;100.00;100048.91;4891876;29;20147;-81
2023/03/15 01:57:02;;;;;;;4.80;1.30;;;;;;;-0.28;100.00;100051.50;4892401;29;20050;-81
2023/03/15 01:59:33;;;;;;;6.63;2.00;;;;;;;-0.46;100.00;100046.06;4875500;29;20158;-81
2023/03/15 02:02:00;;;;;;;3.33;1.70;;;;;;;-0.42;100.00;100044.38;4891164;29;20047;-81
2023/03/15 02:04:30;;;;;;;6.00;1.50;;;;;;;-0.41;100.00;100057.41;4875976;29;20052;-80
2023/03/15 02:06:58;;;;;;;3.63;1.70;;;;;;;-0.43;100.00;100063.38;4898381;29;20532;-80
2023/03/15 02:09:41;;;;;;;6.23;1.80;;;;;;;-0.43;100.00;100072.03;4891460;29;20059;-80
2023/03/15 02:12:09;;;;;;;6.70;1.97;;;;;;;-0.46;100.00;100068.53;4894765;29;20617;-80
2023/03/15 02:14:36;;;;;;;4.27;2.00;;;;;;;-0.41;100.00;100067.78;4890445;29;20048;-81
2023/03/15 02:17:03;;;;;;;9.37;2.00;;;;;;;-0.44;100.00;100070.31;4892554;29;20042;-82
2023/03/15 02:20:18;;;;;;;5.87;2.07;;;;;;;-0.42;100.00;100070.31;4899456;29;20052;-82
2023/03/15 02:23:02;;;;;;;6.22;1.70;;;;;;;-0.46;100.00;100079.81;4858853;29;20045;-82
2023/03/15 02:25:37;;;;;;;9.57;2.00;;;;;;;-0.48;100.00;100070.25;4900832;29;20036;-82
2023/03/15 02:28:06;;;;;;;5.17;2.63;;;;;;;-0.51;100.00;100078.84;4884500;29;20040;-82
2023/03/15 02:30:33;;;;;;;7.37;2.13;;;;;;;-0.46;100.00;100087.59;4900531;29;20060;-83
2023/03/15 02:33:01;;;;;;;5.63;2.30;;;;;;;-0.52;100.00;100089.22;4900645;29;20044;-82
2023/03/15 02:35:30;;;;;;;6.80;2.63;;;;;;;-0.57;100.00;100091.75;4871079;29;20064;-82
2023/03/15 02:37:58;;;;;;;6.57;2.07;;;;;;;-0.47;100.00;100087.56;4932934;23;20045;-81
2023/03/15 02:40:27;;;;;;;6.43;2.10;;;;;;;-0.52;100.00;100099.59;4850723;29;20076;-83
2023/03/15 02:43:00;;;;;;;6.57;2.10;;;;;;;-0.49;100.00;100095.34;4877738;29;20506;-82
2023/03/15 02:45:28;;;;;;;8.93;3.13;;;;;;;-0.41;100.00;100095.44;4857086;29;20040;-81
2023/03/15 02:47:55;;;;;;;8.80;2.37;;;;;;;-0.39;100.00;100088.56;4870403;29;20068;-81
2023/03/15 02:50:21;;;;;;;7.37;1.93;;;;;;;-0.33;100.00;100102.50;4847446;29;20037;-81
2023/03/15 02:52:48;;;;;;;3.63;1.57;;;;;;;-0.36;100.00;100098.97;4830350;29;20045;-81
2023/03/15 02:55:18;;;;;;;5.37;2.00;;;;;;;-0.41;100.00;100109.31;4829336;29;20045;-82
2023/03/15 02:57:44;;;;;;;4.70;1.80;;;;;;;-0.42;100.00;100111.84;4860236;29;20134;-82
2023/03/15 03:00:14;;;;;;;5.73;1.77;;;;;;;-0.42;100.00;100123.13;4853154;29;20045;-82
2023/03/15 03:02:43;;;;;;;5.13;1.40;;;;;;;-0.44;100.00;100121.34;4868368;29;20150;-83
2023/03/15 03:05:12;;;;;;;7.73;2.73;;;;;;;-0.51;100.00;100124.69;4856441;29;20063;-82
2023/03/15 03:07:41;;;;;;;3.50;1.50;;;;;;;-0.46;100.00;100136.00;4845655;29;20048;-83
2023/03/15 03:10:10;;;;;;;5.47;2.53;;;;;;;-0.35;100.00;100148.28;4868806;29;20137;-81
2023/03/15 03:12:37;;;;;;;4.00;1.43;;;;;;;-0.37;100.00;100152.59;4870747;29;20132;-82
2023/03/15 03:15:04;;;;;;;6.67;1.90;;;;;;;-0.51;100.00;100142.84;4864569;29;20048;-80
2023/03/15 03:17:30;;;;;;;6.47;1.83;;;;;;;-0.43;100.00;100149.03;4851663;29;20041;-82
2023/03/15 03:19:57;;;;;;;3.63;1.83;;;;;;;-0.41;100.00;100149.94;4860021;29;20064;-82
2023/03/15 03:22:24;;;;;;;8.07;1.73;;;;;;;-0.43;100.00;100147.31;4844879;29;20049;-82
2023/03/15 03:24:50;;;;;;;6.33;3.03;;;;;;;-0.39;100.00;100149.13;4876383;29;20049;-81
2023/03/15 03:27:17;;;;;;;8.97;2.53;;;;;;;-0.44;100.00;100152.47;4871706;29;20047;-81
2023/03/15 03:29:44;;;;;;;3.60;2.23;;;;;;;-0.51;100.00;100161.00;4845785;29;20468;-81
2023/03/15 03:32:11;;;;;;;4.00;1.50;;;;;;;-0.50;100.00;100162.78;4856281;29;20052;-82
2023/03/15 03:34:38;;;;;;;4.47;1.77;;;;;;;-0.47;100.00;100166.28;4856116;29;20052;-81
2023/03/15 03:37:04;;;;;;;5.70;3.07;;;;;;;-0.41;100.00;100168.13;4862606;29;20080;-81
2023/03/15 03:39:31;;;;;;;6.30;1.50;;;;;;;-0.38;100.00;100165.56;4843969;29;20519;-84
2023/03/15 03:41:58;;;;;;;6.47;2.20;;;;;;;-0.38;100.00;100174.22;4867388;29;20044;-81
2023/03/15 03:44:24;;;;;;;7.73;1.90;;;;;;;-0.45;100.00;100179.28;4843107;29;20056;-81
2023/03/15 03:46:51;;;;;;;5.53;2.87;;;;;;;-0.51;100.00;100185.22;4876525;29;20041;-82
2023/03/15 03:49:18;;;;;;;13.43;3.27;;;;;;;-0.35;100.00;100186.34;4842676;29;20045;-84
2023/03/15 03:51:44;;;;;;;6.70;3.30;;;;;;;-0.46;100.00;100195.69;4851061;29;20045;-81
2023/03/15 03:54:11;;;;;;;7.77;3.07;;;;;;;-0.60;100.00;100201.50;4844337;29;20052;-80
2023/03/15 03:56:45;;;;;;;5.82;2.80;;;;;;;-0.52;100.00;100198.19;4850149;29;20046;-79
2023/03/15 03:59:11;;;;;;;4.90;2.20;;;;;;;-0.61;100.00;100199.78;4865891;29;20507;-81
2023/03/15 04:01:40;;;;;;;5.60;2.40;;;;;;;-0.67;100.00;100198.81;4847828;29;20502;-80
2023/03/15 04:04:07;;;;;;;4.73;1.87;;;;;;;-0.79;100.00;100204.66;4864935;29;20133;-79
2023/03/15 04:06:34;;;;;;;6.60;1.97;;;;;;;-0.81;100.00;100213.25;4839198;29;20049;-80
2023/03/15 04:09:04;;;;;;;5.27;1.97;;;;;;;-0.85;100.00;100207.13;4847242;29;20499;-80
2023/03/15 04:11:30;;;;;;;3.13;1.67;;;;;;;-0.87;100.00;100222.66;4879769;29;20045;-81
2023/03/15 04:13:57;;;;;;;3.77;1.90;;;;;;;-0.90;100.00;100232.13;4865080;29;20049;-79
2023/03/15 04:16:24;;;;;;;6.33;3.17;;;;;;;-0.80;100.00;100236.63;4853066;29;20486;-79
2023/03/15 04:18:51;;;;;;;8.67;3.43;;;;;;;-0.86;100.00;100241.69;4882894;29;20041;-81
2023/03/15 04:21:21;;;;;;;5.43;3.07;;;;;;;-0.84;100.00;100237.41;4840004;29;20049;-79
2023/03/15 04:23:48;;;;;;;5.20;2.80;;;;;;;-0.90;100.00;100245.94;4864774;29;20724;-79
2023/03/15 04:26:15;;;;;;;6.93;2.70;;;;;;;-0.79;100.00;100242.69;4849174;29;20081;-79
2023/03/15 04:28:41;;;;;;;4.20;2.07;;;;;;;-0.83;100.00;100238.28;4864385;29;20038;-79
2023/03/15 04:31:09;;;;;;;5.87;2.63;;;;;;;-0.88;100.00;100251.16;4864574;29;20049;-80
2023/03/15 04:33:37;;;;;;;8.73;2.63;;;;;;;-0.91;100.00;100246.81;4846721;29;20067;-80
2023/03/15 04:36:04;;;;;;;4.40;1.93;;;;;;;-0.84;100.00;100250.38;4845652;29;20060;-81
2023/03/15 04:38:31;;;;;;;7.37;2.20;;;;;;;-0.72;100.00;100258.38;4854841;29;20045;-84
2023/03/15 04:40:58;;;;;;;4.37;1.70;;;;;;;-0.61;100.00;100259.44;4860801;29;20442;-82
2023/03/15 04:43:24;;;;;;;7.00;1.90;;;;;;;-0.71;100.00;100257.53;4860500;29;20064;-82
2023/03/15 04:45:51;;;;;;;6.63;2.50;;;;;;;-0.68;100.00;100252.38;4852929;29;20562;-84
2023/03/15 04:48:17;;;;;;;5.80;2.33;;;;;;;-0.57;100.00;100258.66;4860422;29;20044;-82
2023/03/15 04:50:44;;;;;;;3.90;2.13;;;;;;;-0.51;100.00;100269.97;4837182;29;20413;-82
2023/03/15 04:53:11;;;;;;;4.10;2.03;;;;;;;-0.61;100.00;100262.03;4865991;29;20036;-82
2023/03/15 04:55:37;;;;;;;6.50;2.10;;;;;;;-0.66;100.00;100262.81;4859434;29;20076;-83
2023/03/15 04:58:04;;;;;;;5.90;1.87;;;;;;;-0.67;100.00;100264.53;4844163;29;20044;-83
2023/03/15 05:00:31;;;;;;;7.90;1.90;;;;;;;-0.55;100.00;100273.38;4843685;29;20052;-82
2023/03/15 05:02:57;;;;;;;3.43;1.60;;;;;;;-0.65;100.00;100274.94;4862846;29;20045;-81
2023/03/15 05:05:24;;;;;;;7.77;2.43;;;;;;;-0.64;100.00;100277.56;4861268;29;20050;-82
2023/03/15 05:07:51;;;;;;;4.90;1.50;;;;;;;-0.68;100.00;100280.06;4831755;29;20440;-81
2023/03/15 05:10:18;;;;;;;6.57;1.77;;;;;;;-0.79;100.00;100279.84;4876551;29;20476;-81
2023/03/15 05:12:45;;;;;;;4.73;2.13;;;;;;;-0.79;100.00;100285.03;4865004;29;20045;-81
2023/03/15 05:15:12;;;;;;;3.93;1.27;;;;;;;-0.81;100.00;100288.47;4841588;29;20056;-81
2023/03/15 05:17:38;;;;;;;3.17;1.57;;;;;;;-0.89;100.00;100284.00;4863371;29;20033;-82
2023/03/15 05:20:10;;;;;;;7.53;1.80;;;;;;;-0.74;100.00;100290.34;4862086;29;20440;-82
2023/03/15 05:22:38;;;;;;;5.90;2.20;;;;;;;-0.78;100.00;100288.50;4830931;29;20471;-81
2023/03/15 05:25:06;;;;;;;6.77;2.03;;;;;;;-0.86;100.00;100294.41;4844700;29;20136;-81
2023/03/15 05:27:33;;;;;;;5.43;1.80;;;;;;;-0.85;100.00;100290.97;4868649;29;20045;-82
2023/03/15 05:30:03;;;;;;;4.50;1.73;;;;;;;-0.87;100.00;100295.28;4851980;29;20049;-81
2023/03/15 05:32:33;;;;;;;10.20;2.10;;;;;;;-0.89;100.00;100302.16;4865604;29;20049;-81
2023/03/15 05:35:00;;;;;;;6.47;2.00;;;;;;;-0.96;100.00;100314.97;4862653;29;20051;-81
2023/03/15 05:37:27;;;;;;;12.37;7.10;;;;;;;-0.93;100.00;100318.47;4847272;29;20108;-81
2023/03/15 05:39:54;;;;;;;9.03;3.30;;;;;;;-0.82;100.00;100320.44;4860551;29;20042;-81
2023/03/15 05:42:24;;;;;;;6.67;3.43;;;;;;;-0.85;100.00;100329.00;4853964;29;20044;-82
2023/03/15 05:44:55;;;;;;;7.00;3.50;;;;;;;-0.89;100.00;100327.22;4841728;29;20060;-82
2023/03/15 05:47:22;;;;;;;7.13;3.13;;;;;;;-0.78;100.00;100336.06;4874564;29;20047;-81
2023/03/15 05:49:49;;;;;;;7.90;2.27;;;;;;;-0.82;100.00;100348.97;4843005;29;20044;-82
2023/03/15 05:52:16;;;;;;;8.90;2.73;;;;;;;-0.89;100.00;100358.34;4855253;29;20413;-81
2023/03/15 05:54:42;;;;;;;40.37;17.80;;;;;;;-0.82;100.00;100369.72;4868025;29;20053;-81
2023/03/15 05:57:09;;;;;;;18.70;8.40;;;;;;;-0.88;100.00;100362.66;4865766;29;20048;-82
2023/03/15 05:59:37;;;;;;;9.47;2.90;;;;;;;-0.81;100.00;100371.47;4834542;29;20083;-81
2023/03/15 06:02:03;;;;;;;4.60;2.13;;;;;;;-0.75;100.00;100377.66;4856985;29;20056;-84
2023/03/15 06:04:30;;;;;;;9.87;2.73;;;;;;;-0.78;100.00;100374.09;4842937;29;20069;-82
2023/03/15 06:06:57;;;;;;;6.73;2.50;;;;;;;-0.66;100.00;100384.75;4895611;29;20055;-81
2023/03/15 06:09:23;;;;;;;8.13;4.33;;;;;;;-0.63;100.00;100393.44;4869964;29;20037;-83
2023/03/15 06:11:51;;;;;;;7.37;2.50;;;;;;;-0.47;100.00;100396.34;4877601;29;20072;-81
2023/03/15 06:14:17;;;;;;;7.43;3.80;;;;;;;-0.44;100.00;100402.47;4861605;29;20045;-82
2023/03/15 06:16:44;;;;;;;4.27;2.80;;;;;;;-0.34;100.00;100404.44;4841235;29;20136;-83
2023/03/15 06:19:11;;;;;;;8.37;2.73;;;;;;;-0.30;100.00;100405.34;4861420;29;20048;-82
2023/03/15 06:21:37;;;;;;;4.87;2.10;;;;;;;-0.23;100.00;100419.31;4830730;29;20053;-81
2023/03/15 06:24:06;;;;;;;6.57;2.33;;;;;;;-0.11;100.00;100415.22;4851610;29;20041;-82
2023/03/15 06:26:32;;;;;;;5.47;2.77;;;;;;;-0.11;100.00;100420.41;4858517;29;20055;-81
2023/03/15 06:28:59;;;;;;;4.10;2.07;;;;;;;0.01;100.00;100424.09;4840851;29;20051;-82
2023/03/15 06:31:26;;;;;;;5.83;2.53;;;;;;;0.15;100.00;100426.09;4866681;29;20072;-82
2023/03/15 06:33:52;;;;;;;5.27;2.30;;;;;;;0.11;100.00;100426.03;4867143;29;20578;-82
2023/03/15 06:36:19;;;;;;;6.20;2.30;;;;;;;0.20;100.00;100431.38;4861928;29;20528;-82
2023/03/15 06:38:46;;;;;;;7.10;2.27;;;;;;;0.32;100.00;100430.69;4847611;29;20441;-82
2023/03/15 06:41:14;;;;;;;4.73;1.90;;;;;;;0.36;100.00;100437.72;4852869;29;20056;-82
2023/03/15 06:43:41;;;;;;;6.63;2.13;;;;;;;0.30;100.00;100442.81;4884311;29;20085;-83
2023/03/15 06:46:07;;;;;;;7.00;2.30;;;;;;;0.21;100.00;100449.59;4865328;29;20410;-82
2023/03/15 06:48:34;;;;;;;8.00;2.43;;;;;;;0.46;100.00;100450.88;4830535;29;20045;-81
2023/03/15 06:51:02;;;;;;;5.00;1.90;;;;;;;0.33;100.00;100451.50;4876443;29;20069;-82
2023/03/15 06:53:33;;;;;;;5.07;2.60;;;;;;;0.39;100.00;100454.22;4855808;29;20139;-82
2023/03/15 06:56:00;;;;;;;6.23;2.53;;;;;;;0.48;100.00;100453.50;4860454;29;20045;-83
2023/03/15 06:58:26;;;;;;;5.33;2.20;;;;;;;0.51;100.00;100461.38;4860403;29;20049;-81
2023/03/15 07:00:53;;;;;;;7.53;2.07;;;;;;;0.60;100.00;100463.25;4853531;29;20060;-83
2023/03/15 07:03:21;;;;;;;10.27;3.23;;;;;;;0.71;100.00;100472.09;4877613;29;20040;-82
2023/03/15 07:05:51;;;;;;;5.40;2.20;;;;;;;0.80;100.00;100474.84;4881520;29;20048;-83
2023/03/15 07:08:18;;;;;;;5.50;2.33;;;;;;;0.69;100.00;100479.00;4878119;29;20060;-80
2023/03/15 07:10:45;;;;;;;7.10;2.27;;;;;;;0.81;100.00;100492.19;4845443;29;20468;-81
2023/03/15 07:13:12;;;;;;;4.53;2.00;;;;;;;0.89;100.00;100503.59;4861486;29;20491;-82
2023/03/15 07:15:39;;;;;;;8.27;2.60;;;;;;;0.97;100.00;100503.72;4846680;29;20097;-81
2023/03/15 07:18:05;;;;;;;6.03;3.23;;;;;;;0.94;100.00;100501.94;4877063;29;20443;-82
2023/03/15 07:20:32;;;;;;;7.40;2.57;;;;;;;0.86;100.00;100508.75;4859359;29;21605;-81
2023/03/15 07:23:02;;;;;;;12.83;3.90;;;;;;;0.95;100.00;100500.22;4862195;29;20048;-79
2023/03/15 07:25:29;;;;;;;6.67;3.00;;;;;;;1.02;100.00;100504.66;4867759;29;20053;-79
2023/03/15 07:27:56;;;;;;;10.20;2.67;;;;;;;1.07;100.00;100510.81;4878564;29;20490;-80
2023/03/15 07:30:22;;;;;;;6.73;2.60;;;;;;;1.08;100.00;100509.94;4854358;29;20067;-80
2023/03/15 07:32:49;;;;;;;5.93;3.03;;;;;;;1.07;100.00;100514.28;4841774;29;20125;-79
2023/03/15 07:35:17;;;;;;;5.80;2.43;;;;;;;1.16;100.00;100512.66;4858235;29;20069;-79
2023/03/15 07:37:44;;;;;;;9.40;4.37;;;;;;;1.23;100.00;100514.50;4846323;29;20052;-79
2023/03/15 07:40:11;;;;;;;5.70;2.50;;;;;;;1.39;100.00;100513.88;4858760;29;20045;-80
2023/03/15 07:42:41;;;;;;;9.27;3.37;;;;;;;1.44;100.00;100527.00;4850186;29;20048;-79
2023/03/15 07:45:08;;;;;;;4.33;2.50;;;;;;;1.35;100.00;100532.94;4880227;29;20044;-79
2023/03/15 07:47:35;;;;;;;4.97;2.30;;;;;;;1.49;100.00;100533.97;4864319;29;20502;-79
2023/03/15 07:50:03;;;;;;;6.73;2.97;;;;;;;1.49;100.00;100543.53;4864379;29;20452;-79
2023/03/15 07:52:30;;;;;;;8.40;3.13;;;;;;;1.63;100.00;100542.00;4875435;29;20037;-78
2023/03/15 07:54:57;;;;;;;8.23;3.33;;;;;;;1.63;100.00;100542.88;4880069;29;20051;-79
2023/03/15 07:57:24;;;;;;;10.27;4.03;;;;;;;1.62;100.00;100543.72;4879898;29;20566;-79
2023/03/15 07:59:53;;;;;;;7.33;3.13;;;;;;;1.65;100.00;100548.09;4865486;29;20405;-79
2023/03/15 08:02:20;;;;;;;8.90;3.10;;;;;;;1.65;100.00;100550.69;4879286;29;20127;-78
2023/03/15 08:04:49;;;;;;;7.87;3.00;;;;;;;1.66;100.00;100542.91;4858552;29;20045;-79
2023/03/15 08:07:16;;;;;;;8.40;3.67;;;;;;;1.67;100.00;100541.16;4858688;29;20045;-78
2023/03/15 08:09:43;;;;;;;6.93;3.10;;;;;;;1.63;100.00;100548.09;4866339;29;20065;-80
2023/03/15 08:12:10;;;;;;;8.63;3.43;;;;;;;1.77;100.00;100552.63;4855784;29;20056;-79
2023/03/15 08:14:37;;;;;;;5.67;3.13;;;;;;;1.75;100.00;100557.78;4879095;29;20104;-79
2023/03/15 08:17:04;;;;;;;7.57;3.27;;;;;;;1.87;100.00;100549.28;4871591;29;20414;-79
2023/03/15 08:19:31;;;;;;;6.33;2.50;;;;;;;1.86;100.00;100564.03;4857742;29;20573;-79
2023/03/15 08:21:58;;;;;;;11.03;2.90;;;;;;;1.87;100.00;100565.78;4860139;29;20063;-79
2023/03/15 08:24:25;;;;;;;6.73;3.40;;;;;;;1.96;100.00;100576.31;4860203;29;20132;-79
2023/03/15 08:26:52;;;;;;;4.87;2.83;;;;;;;1.90;100.00;100573.63;4845132;29;20475;-79
2023/03/15 08:29:19;;;;;;;9.37;4.13;;;;;;;1.89;100.00;100584.91;4876715;29;20084;-80
2023/03/15 08:31:46;;;;;;;8.73;3.57;;;;;;;1.80;100.00;100586.50;4844313;29;20045;-79
2023/03/15 08:34:12;;;;;;;10.43;5.23;;;;;;;1.77;100.00;100582.13;4844997;29;20049;-78
2023/03/15 08:36:40;;;;;;;10.77;4.23;;;;;;;1.81;100.00;100580.44;4844787;29;20057;-79
2023/03/15 08:39:07;;;;;;;7.90;3.60;;;;;;;1.91;100.00;100582.31;4862252;29;20036;-79
2023/03/15 08:41:34;;;;;;;5.77;3.43;;;;;;;1.91;100.00;100580.56;4864036;29;20057;-79
2023/03/15 08:44:03;;;;;;;7.27;3.57;;;;;;;1.91;100.00;100585.78;4867417;29;20491;-79
2023/03/15 08:46:31;;;;;;;7.43;3.20;;;;;;;1.85;100.00;100588.34;4853877;29;20439;-80
2023/03/15 08:48:58;;;;;;;6.73;3.57;;;;;;;2.05;100.00;100591.19;4864815;29;20574;-80
2023/03/15 08:51:25;;;;;;;6.17;3.50;;;;;;;2.17;100.00;100586.13;4879440;29;20045;-79
2023/03/15 08:53:52;;;;;;;7.90;4.00;;;;;;;2.23;100.00;100591.41;4965613;23;20048;-78
2023/03/15 08:56:19;;;;;;;8.87;3.57;;;;;;;2.43;100.00;100589.03;4904550;29;20048;-81
2023/03/15 08:58:47;;;;;;;5.17;3.03;;;;;;;2.48;100.00;100596.91;4921021;29;20036;-81
2023/03/15 09:01:14;;;;;;;6.63;2.83;;;;;;;2.66;100.00;100604.94;4923156;29;20513;-82
2023/03/15 09:03:41;;;;;;;6.03;3.77;;;;;;;2.69;100.00;100604.09;4882441;29;20498;-81
2023/03/15 09:06:08;;;;;;;6.27;3.10;;;;;;;2.80;100.00;100611.19;4909097;29;20044;-81
2023/03/15 09:08:35;;;;;;;7.37;3.37;;;;;;;2.55;100.00;100603.97;4885979;29;20044;-80
2023/03/15 09:11:02;;;;;;;6.20;3.63;;;;;;;2.76;100.00;100613.72;4931086;29;20048;-80
2023/03/15 09:13:29;;;;;;;7.63;3.30;;;;;;;2.79;100.00;100619.00;4931168;29;20047;-80
2023/03/15 09:15:56;;;;;;;6.93;3.73;;;;;;;3.02;100.00;100622.69;4904694;29;20067;-80
2023/03/15 09:18:23;;;;;;;7.30;3.30;;;;;;;3.28;100.00;100624.66;4898728;29;20078;-81
2023/03/15 09:20:50;;;;;;;8.73;3.93;;;;;;;3.29;100.00;100635.13;4904623;29;20090;-82
2023/03/15 09:23:16;;;;;;;5.87;3.00;;;;;;;3.44;100.00;100629.13;4894438;29;20071;-81
2023/03/15 09:25:43;;;;;;;6.20;3.10;;;;;;;3.41;100.00;100634.34;4901587;29;20059;-81
2023/03/15 09:28:10;;;;;;;7.50;3.17;;;;;;;3.47;100.00;100633.53;4886420;29;20048;-82
2023/03/15 09:30:38;;;;;;;4.40;2.83;;;;;;;3.34;100.00;100636.03;4901023;29;20124;-80
2023/03/15 09:33:06;;;;;;;7.27;2.87;;;;;;;3.43;100.00;100642.19;4933245;29;20596;-80
2023/03/15 09:35:34;;;;;;;4.50;2.27;;;;;;;3.55;99.39;100644.91;4886368;29;20051;-80
2023/03/15 09:38:02;;;;;;;5.07;2.30;;;;;;;3.35;94.76;100645.59;4903828;29;20056;-80
2023/03/15 09:40:41;;;;;;;5.77;3.03;;;;;;;3.70;99.75;100651.97;4904143;29;20039;-79
2023/03/15 09:43:07;;;;;;;7.93;3.07;;;;;;;3.87;99.89;100651.25;4923797;29;20110;-79
2023/03/15 09:45:40;;;;;;;5.63;2.37;;;;;;;3.91;95.02;100662.59;4927822;29;20040;-79
2023/03/15 09:48:24;;;;;;;5.53;2.23;;;;;;;3.90;97.96;100668.69;4934283;29;20040;-81
2023/03/15 09:50:54;;;;;;;5.95;2.55;;;;;;;3.98;98.52;100677.47;4920606;29;20051;-79
2023/03/15 09:53:28;;;;;;;6.33;2.40;;;;;;;4.06;98.57;100670.53;4911525;29;20044;-79
2023/03/15 09:55:54;;;;;;;3.47;1.90;;;;;;;4.06;94.44;100667.91;4909076;29;20501;-80
2023/03/15 09:58:31;;;;;;;5.20;2.73;;;;;;;4.17;96.06;100674.06;4896702;29;20047;-80
2023/03/15 10:01:11;;;;;;;5.90;2.40;;;;;;;4.37;96.45;100679.44;4960015;29;20039;-80
2023/03/15 10:03:48;;;;;;;6.23;3.17;;;;;;;4.34;90.93;100692.47;4930003;29;20051;-79
2023/03/15 10:06:18;;;;;;;5.40;2.43;;;;;;;4.50;91.93;100691.69;4927080;29;20044;-79
2023/03/15 10:08:45;;;;;;;6.53;3.07;;;;;;;4.57;89.94;100694.34;4913496;29;20521;-78
2023/03/15 10:11:20;;;;;;;5.53;2.17;;;;;;;4.60;90.58;100691.72;4934967;29;20067;-80
2023/03/15 10:13:54;;;;;;;7.13;2.58;;;;;;;4.77;92.71;100690.91;4917005;29;20044;-80
2023/03/15 10:16:39;;;;;;;4.97;2.80;;;;;;;4.83;88.73;100679.59;4903462;29;20051;-79
2023/03/15 10:19:14;;;;;;;7.70;3.90;;;;;;;4.80;87.95;100690.09;4933925;29;20040;-81
2023/03/15 10:21:55;;;;;;;6.50;4.33;;;;;;;4.76;89.32;100683.94;4906518;29;20088;-80
2023/03/15 10:24:30;;;;;;;6.47;3.13;;;;;;;4.71;87.02;100692.66;4930958;29;20043;-79
2023/03/15 10:26:59;;;;;;;4.57;2.03;;;;;;;4.38;83.24;100696.00;4924269;29;20528;-80
2023/03/15 10:29:25;;;;;;;5.10;1.87;;;;;;;4.47;85.56;100701.28;4879376;29;20513;-80
2023/03/15 10:31:53;;;;;;;3.57;1.93;;;;;;;4.49;85.68;100694.31;4909450;29;20422;-80
2023/03/15 10:34:21;;;;;;;6.13;2.10;;;;;;;4.72;92.03;100697.03;4919889;29;20047;-79
2023/03/15 10:36:53;;;;;;;7.90;2.27;;;;;;;4.74;87.00;100692.66;4869707;29;20048;-81
2023/03/15 10:39:20;;;;;;;5.87;2.90;;;;;;;4.94;85.87;100690.97;4901394;29;20047;-79
2023/03/15 10:41:48;;;;;;;4.47;1.93;;;;;;;5.21;83.53;100695.44;4908331;29;20056;-80
2023/03/15 10:44:18;;;;;;;4.77;2.20;;;;;;;5.19;81.74;100699.75;4906991;29;20113;-81
2023/03/15 10:47:05;;;;;;;158.77;85.77;;;;;;;4.92;80.65;100716.28;4884872;29;20048;-81
2023/03/15 10:49:48;;;;;;;6.93;5.20;;;;;;;4.66;81.41;100716.19;4913813;29;20036;-79
2023/03/15 10:52:35;;;;;;;6.70;2.63;;;;;;;4.80;85.00;100718.88;4930443;29;20115;-79
2023/03/15 10:55:15;;;;;;;4.77;3.57;;;;;;;4.89;85.04;100716.28;4932643;29;20063;-79
2023/03/15 10:57:56;;;;;;;5.37;2.50;;;;;;;4.98;82.11;100720.69;4914443;29;20044;-79
2023/03/15 11:00:35;;;;;;;9.87;3.30;;;;;;;5.04;84.15;100726.81;4950128;29;20047;-80
2023/03/15 11:03:15;;;;;;;4.57;2.63;;;;;;;5.52;85.20;100724.28;4923187;29;20055;-81
2023/03/15 11:05:45;;;;;;;7.73;2.57;;;;;;;5.76;80.44;100724.28;4907796;29;20051;-80
2023/03/15 11:08:15;;;;;;;5.50;2.50;;;;;;;5.91;77.13;100724.34;4912433;29;20033;-79
2023/03/15 11:10:43;;;;;;;5.30;2.80;;;;;;;6.19;78.04;100719.91;4912150;29;20036;-79
2023/03/15 11:13:10;;;;;;;2.60;1.80;;;;;;;6.51;79.93;100724.22;4928961;29;20047;-79
2023/03/15 11:15:38;;;;;;;4.33;2.43;;;;;;;6.43;73.78;100726.88;4919273;29;20080;-80
2023/03/15 11:18:05;;;;;;;5.03;2.87;;;;;;;6.23;70.81;100718.19;4903335;29;20040;-80
2023/03/15 11:20:37;;;;;;;5.83;2.50;;;;;;;6.33;76.75;100717.28;4912297;29;20052;-81
2023/03/15 11:23:18;;;;;;;5.20;2.60;;;;;;;6.58;76.41;100722.47;5039223;28;20452;-80
2023/03/15 11:25:45;;;;;;;;;;;;;;;6.58;69.16;100725.09;5033969;28;20109;-80
2023/03/15 11:28:17;;;;;;;5.30;2.00;;;;;;;6.69;73.44;100724.16;5002652;28;19929;-80
2023/03/15 11:30:45;;;;;;;6.93;1.97;;;;;;;6.50;71.68;100717.22;4996318;28;20415;-80
2023/03/15 11:33:26;;;;;;;4.13;1.67;;;;;;;6.29;71.09;100720.78;5024109;28;20455;-80
2023/03/15 11:35:54;;;;;;;6.97;2.47;;;;;;;6.13;73.76;100721.66;5032577;28;20138;-80
2023/03/15 11:38:44;;;;;;;5.30;1.80;;;;;;;6.29;73.65;100722.53;4999674;28;20130;-80
2023/03/15 11:41:23;;;;;;;4.30;2.43;;;;;;;6.71;76.52;100705.78;5016235;28;20042;-80
2023/03/15 11:44:24;;;;;;;4.97;2.20;;;;;;;7.10;72.84;100717.84;5027056;28;20081;-81